createdAt,value
2023-01-22T00:00:57.998Z,17.25
2023-01-22T00:03:24.563Z,16.02
2023-01-22T00:05:52.380Z,16.65
2023-01-22T00:08:19.633Z,17.15
2023-01-22T00:10:53.370Z,15.73
2023-01-22T00:13:21.594Z,17.45
2023-01-22T00:15:48.491Z,16.77
2023-01-22T00:18:15.115Z,17.20
2023-01-22T00:20:41.830Z,17.45
2023-01-22T00:23:08.273Z,16.50
2023-01-22T00:25:34.702Z,18.13
2023-01-22T00:28:01.153Z,18.35
2023-01-22T00:30:27.620Z,18.67
2023-01-22T00:32:54.029Z,18.77
2023-01-22T00:35:20.452Z,17.90
2023-01-22T00:37:48.201Z,20.10
2023-01-22T00:40:15.745Z,19.50
2023-01-22T00:42:42.600Z,17.38
2023-01-22T00:45:09.569Z,19.73
2023-01-22T00:47:36.072Z,17.02
2023-01-22T00:50:02.771Z,18.73
2023-01-22T00:52:29.153Z,18.92
2023-01-22T00:54:55.635Z,18.40
2023-01-22T00:57:22.662Z,18.38
2023-01-22T00:59:49.516Z,18.38
2023-01-22T01:02:16.452Z,17.73
2023-01-22T01:04:42.904Z,17.48
2023-01-22T01:07:09.617Z,16.77
2023-01-22T01:09:36.061Z,17.88
2023-01-22T01:12:02.554Z,17.55
2023-01-22T01:14:28.993Z,17.90
2023-01-22T01:16:58.290Z,18.05
2023-01-22T01:19:24.846Z,18.27
2023-01-22T01:21:51.270Z,18.00
2023-01-22T01:24:17.674Z,17.20
2023-01-22T01:26:44.102Z,18.20
2023-01-22T01:29:12.726Z,17.65
2023-01-22T01:31:39.271Z,17.50
2023-01-22T01:34:05.804Z,18.15
2023-01-22T01:36:47.585Z,17.33
2023-01-22T01:39:15.074Z,18.13
2023-01-22T01:41:41.497Z,16.88
2023-01-22T01:44:08.811Z,16.63
2023-01-22T01:46:37.001Z,15.75
2023-01-22T01:49:03.586Z,18.63
2023-01-22T01:51:33.150Z,17.52
2023-01-22T01:54:00.945Z,17.17
2023-01-22T01:56:29.680Z,16.95
2023-01-22T01:59:00.893Z,16.33
2023-01-22T02:01:27.699Z,17.13
2023-01-22T02:03:54.831Z,16.35
2023-01-22T02:06:21.474Z,17.25
2023-01-22T02:08:49.097Z,18.38
2023-01-22T02:11:17.327Z,16.55
2023-01-22T02:13:51.552Z,17.27
2023-01-22T02:16:18.797Z,16.60
2023-01-22T02:18:45.386Z,16.35
2023-01-22T02:21:31.446Z,16.52
2023-01-22T02:23:58.145Z,17.60
2023-01-22T02:26:24.635Z,16.10
2023-01-22T02:28:51.086Z,16.30
2023-01-22T02:31:17.604Z,16.92
2023-01-22T02:33:44.140Z,14.45
2023-01-22T02:36:10.618Z,16.45
2023-01-22T02:38:37.084Z,14.95
2023-01-22T02:41:03.571Z,14.63
2023-01-22T02:43:29.995Z,16.63
2023-01-22T02:45:56.579Z,15.68
2023-01-22T02:48:23.004Z,15.10
2023-01-22T02:50:49.468Z,14.40
2023-01-22T02:53:15.940Z,15.20
2023-01-22T02:55:44.951Z,14.73
2023-01-22T02:58:11.564Z,14.45
2023-01-22T03:00:38.197Z,15.88
2023-01-22T03:03:07.719Z,13.95
2023-01-22T03:05:34.825Z,15.32
2023-01-22T03:08:01.728Z,15.85
2023-01-22T03:10:28.264Z,14.82
2023-01-22T03:13:13.472Z,15.73
2023-01-22T03:15:58.832Z,15.43
2023-01-22T03:18:43.872Z,14.10
2023-01-22T03:21:15.674Z,14.70
2023-01-22T03:23:46.735Z,14.38
2023-01-22T03:26:13.745Z,13.65
2023-01-22T03:28:40.565Z,14.77
2023-01-22T03:31:07.678Z,14.30
2023-01-22T03:33:34.631Z,15.15
2023-01-22T03:36:02.628Z,14.68
2023-01-22T03:38:29.549Z,15.15
2023-01-22T03:41:04.054Z,14.90
2023-01-22T03:43:31.082Z,15.48
2023-01-22T03:46:27.283Z,14.85
2023-01-22T03:48:54.042Z,14.10
2023-01-22T03:51:21.036Z,16.55
2023-01-22T03:53:48.327Z,15.70
2023-01-22T03:56:18.662Z,15.88
2023-01-22T03:58:45.547Z,15.70
2023-01-22T04:01:14.626Z,15.35
2023-01-22T04:03:41.368Z,15.80
2023-01-22T04:06:09.322Z,17.08
2023-01-22T04:08:36.739Z,16.35
2023-01-22T04:11:03.564Z,16.90
2023-01-22T04:13:32.915Z,14.85
2023-01-22T04:15:59.369Z,17.45
2023-01-22T04:18:25.875Z,17.20
2023-01-22T04:20:53.468Z,17.00
2023-01-22T04:23:21.199Z,16.52
2023-01-22T04:25:48.242Z,17.63
2023-01-22T04:28:15.681Z,18.27
2023-01-22T04:30:43.592Z,17.67
2023-01-22T04:33:10.284Z,16.58
2023-01-22T04:35:37.335Z,16.50
2023-01-22T04:38:05.221Z,17.60
2023-01-22T04:40:33.532Z,17.10
2023-01-22T04:43:30.369Z,18.65
2023-01-22T04:45:56.939Z,17.17
2023-01-22T04:48:23.452Z,16.98
2023-01-22T04:50:49.928Z,16.52
2023-01-22T04:53:16.396Z,17.60
2023-01-22T04:55:43.505Z,17.75
2023-01-22T04:58:10.067Z,17.70
2023-01-22T05:00:36.907Z,17.60
2023-01-22T05:03:04.473Z,17.02
2023-01-22T05:05:32.040Z,15.95
2023-01-22T05:07:59.517Z,17.58
2023-01-22T05:10:26.357Z,17.85
2023-01-22T05:12:54.028Z,17.10
2023-01-22T05:15:25.002Z,16.90
2023-01-22T05:17:52.629Z,17.45
2023-01-22T05:20:19.562Z,16.58
2023-01-22T05:22:46.131Z,17.30
2023-01-22T05:25:12.939Z,17.67
2023-01-22T05:27:39.394Z,15.98
2023-01-22T05:30:08.577Z,17.00
2023-01-22T05:32:35.155Z,16.25
2023-01-22T05:35:02.377Z,17.00
2023-01-22T05:37:28.876Z,17.63
2023-01-22T05:39:55.326Z,16.88
2023-01-22T05:42:21.773Z,16.08
2023-01-22T05:44:48.270Z,16.25
2023-01-22T05:47:15.417Z,16.83
2023-01-22T05:49:42.229Z,16.95
2023-01-22T05:52:10.823Z,16.73
2023-01-22T05:54:38.903Z,16.63
2023-01-22T05:57:05.708Z,15.50
2023-01-22T05:59:32.162Z,16.40
2023-01-22T06:01:58.618Z,16.45
2023-01-22T06:04:25.192Z,16.10
2023-01-22T06:06:51.657Z,16.05
2023-01-22T06:09:18.088Z,15.93
2023-01-22T06:11:44.495Z,14.85
2023-01-22T06:14:10.924Z,15.48
2023-01-22T06:16:37.368Z,16.08
2023-01-22T06:19:04.176Z,15.82
2023-01-22T06:21:30.749Z,14.88
2023-01-22T06:23:57.164Z,15.85
2023-01-22T06:26:23.668Z,15.02
2023-01-22T06:28:50.065Z,15.35
2023-01-22T06:31:16.694Z,17.00
2023-01-22T06:33:43.202Z,15.30
2023-01-22T06:36:09.871Z,16.23
2023-01-22T06:38:36.546Z,15.07
2023-01-22T06:41:03.063Z,15.30
2023-01-22T06:43:29.497Z,14.63
2023-01-22T06:45:56.189Z,14.02
2023-01-22T06:48:22.730Z,15.88
2023-01-22T06:50:49.440Z,14.98
2023-01-22T06:53:15.917Z,15.02
2023-01-22T06:55:42.448Z,14.75
2023-01-22T06:58:08.905Z,14.70
2023-01-22T07:00:35.333Z,14.88
2023-01-22T07:03:06.670Z,15.63
2023-01-22T07:05:33.464Z,14.65
2023-01-22T07:07:59.903Z,16.45
2023-01-22T07:10:26.454Z,16.10
2023-01-22T07:12:58.841Z,15.75
2023-01-22T07:15:26.104Z,15.88
2023-01-22T07:17:54.038Z,16.38
2023-01-22T07:20:22.073Z,15.57
2023-01-22T07:22:48.804Z,16.15
2023-01-22T07:25:15.294Z,15.93
2023-01-22T07:27:41.769Z,15.52
2023-01-22T07:30:08.950Z,15.90
2023-01-22T07:32:35.812Z,14.82
2023-01-22T07:35:02.229Z,19.17
2023-01-22T07:37:28.637Z,16.08
2023-01-22T07:39:55.096Z,17.35
2023-01-22T07:42:21.529Z,16.42
2023-01-22T07:44:48.036Z,16.20
2023-01-22T07:47:14.527Z,16.20
2023-01-22T07:49:40.966Z,18.73
2023-01-22T07:52:07.397Z,16.70
2023-01-22T07:54:36.275Z,16.88
2023-01-22T07:57:03.714Z,16.05
2023-01-22T07:59:30.193Z,17.00
2023-01-22T08:01:57.087Z,20.30
2023-01-22T08:04:24.223Z,16.25
2023-01-22T08:06:50.700Z,15.88
2023-01-22T08:09:24.519Z,15.50
2023-01-22T08:11:52.371Z,15.45
2023-01-22T08:14:19.215Z,16.00
2023-01-22T08:16:45.736Z,16.17
2023-01-22T08:19:12.428Z,14.75
2023-01-22T08:21:38.897Z,15.52
2023-01-22T08:24:05.873Z,14.98
2023-01-22T08:26:32.394Z,16.30
2023-01-22T08:28:58.840Z,14.43
2023-01-22T08:31:28.241Z,15.52
2023-01-22T08:33:55.091Z,15.60
2023-01-22T08:36:21.525Z,16.20
2023-01-22T08:38:48.023Z,14.40
2023-01-22T08:41:15.637Z,14.60
2023-01-22T08:43:42.168Z,15.30
2023-01-22T08:46:08.665Z,17.38
2023-01-22T08:48:35.240Z,15.50
2023-01-22T08:51:02.191Z,15.65
2023-01-22T08:53:28.665Z,17.10
2023-01-22T08:55:56.046Z,16.98
2023-01-22T08:58:25.249Z,16.70
2023-01-22T09:00:51.712Z,16.95
2023-01-22T09:03:18.197Z,14.20
2023-01-22T09:05:44.656Z,18.50
2023-01-22T09:08:11.180Z,17.80
2023-01-22T09:10:37.633Z,15.57
2023-01-22T09:13:04.397Z,16.15
2023-01-22T09:15:31.032Z,16.33
2023-01-22T09:17:57.551Z,13.68
2023-01-22T09:20:24.152Z,16.33
2023-01-22T09:22:50.654Z,16.05
2023-01-22T09:25:17.310Z,15.05
2023-01-22T09:27:43.983Z,15.30
2023-01-22T09:30:16.759Z,14.35
2023-01-22T09:32:46.276Z,16.35
2023-01-22T09:35:16.631Z,15.63
2023-01-22T09:37:43.264Z,16.02
2023-01-22T09:40:24.299Z,14.95
2023-01-22T09:45:19.782Z,14.63
2023-01-22T09:47:49.671Z,14.77
2023-01-22T09:50:40.202Z,15.23
2023-01-22T09:53:12.128Z,14.80
2023-01-22T09:55:47.854Z,15.63
2023-01-22T09:58:16.967Z,15.35
2023-01-22T10:00:47.780Z,14.20
2023-01-22T10:03:28.859Z,15.45
2023-01-22T10:08:53.232Z,15.23
2023-01-22T10:11:19.982Z,13.55
2023-01-22T10:13:50.024Z,15.10
2023-01-22T10:16:16.502Z,14.93
2023-01-22T10:18:59.192Z,15.70
2023-01-22T10:21:28.779Z,15.68
2023-01-22T10:23:56.801Z,14.68
2023-01-22T10:26:36.200Z,15.35
2023-01-22T10:29:08.579Z,14.80
2023-01-22T10:31:38.424Z,14.45
2023-01-22T10:34:15.893Z,14.83
2023-01-22T10:36:49.188Z,14.95
2023-01-22T10:39:16.805Z,14.88
2023-01-22T10:41:44.791Z,15.98
2023-01-22T10:44:17.264Z,15.10
2023-01-22T10:46:46.332Z,13.15
2023-01-22T10:49:16.168Z,18.63
2023-01-22T10:51:45.727Z,15.23
2023-01-22T10:54:39.780Z,14.60
2023-01-22T10:57:15.239Z,15.30
2023-01-22T10:59:49.315Z,14.98
2023-01-22T11:02:21.010Z,13.27
2023-01-22T11:04:47.757Z,15.57
2023-01-22T11:07:31.662Z,16.15
2023-01-22T11:09:59.043Z,15.07
2023-01-22T11:12:31.515Z,12.70
2023-01-22T11:15:31.063Z,15.70
2023-01-22T11:18:00.629Z,14.02
2023-01-22T11:20:48.064Z,15.27
2023-01-22T11:23:42.067Z,14.40
2023-01-22T11:26:33.284Z,15.20
2023-01-22T11:31:52.020Z,15.57
2023-01-22T11:34:37.336Z,15.75
2023-01-22T11:37:15.376Z,14.45
2023-01-22T11:40:01.257Z,14.32
2023-01-22T11:42:49.707Z,14.05
2023-01-22T11:45:19.279Z,15.32
2023-01-22T11:47:52.023Z,16.45
2023-01-22T11:50:22.390Z,17.10
2023-01-22T11:53:01.378Z,13.95
2023-01-22T11:55:57.138Z,14.25
2023-01-22T11:59:08.797Z,14.20
2023-01-22T12:01:56.467Z,15.98
2023-01-22T12:04:33.452Z,15.63
2023-01-22T12:07:37.662Z,15.32
2023-01-22T12:10:13.137Z,18.63
2023-01-22T12:12:48.576Z,16.45
2023-01-22T12:15:39.369Z,15.27
2023-01-22T12:18:24.683Z,14.80
2023-01-22T12:21:15.994Z,14.65
2023-01-22T12:23:48.980Z,19.40
2023-01-22T12:26:24.110Z,16.55
2023-01-22T12:29:10.113Z,18.50
2023-01-22T12:31:46.062Z,14.27
2023-01-22T12:34:23.555Z,15.43
2023-01-22T12:36:51.027Z,14.48
2023-01-22T12:39:27.186Z,16.08
2023-01-22T12:42:09.213Z,15.75
2023-01-22T12:44:49.507Z,15.68
2023-01-22T12:47:42.206Z,13.07
2023-01-22T12:50:21.304Z,15.35
2023-01-22T12:53:17.860Z,13.43
2023-01-22T12:55:45.081Z,17.63
2023-01-22T12:58:22.351Z,14.77
2023-01-22T13:01:00.763Z,16.33
2023-01-22T13:03:32.895Z,16.35
2023-01-22T13:06:01.269Z,15.93
2023-01-22T13:08:42.379Z,17.30
2023-01-22T13:11:11.382Z,17.55
2023-01-22T13:13:48.898Z,16.88
2023-01-22T13:16:15.336Z,17.45
2023-01-22T13:18:44.998Z,14.20
2023-01-22T13:21:14.416Z,16.25
2023-01-22T13:23:45.732Z,15.88
2023-01-22T13:26:23.898Z,15.13
2023-01-22T13:28:53.917Z,18.70
2023-01-22T13:31:20.919Z,17.20
2023-01-22T13:34:08.609Z,17.33
2023-01-22T13:36:39.733Z,16.42
2023-01-22T13:39:06.205Z,16.05
2023-01-22T13:41:37.454Z,15.10
2023-01-22T13:44:07.675Z,14.45
2023-01-22T13:46:37.526Z,16.67
2023-01-22T13:49:07.813Z,17.98
2023-01-22T13:51:35.460Z,15.68
2023-01-22T13:54:03.377Z,17.20
2023-01-22T13:56:30.154Z,14.70
2023-01-22T13:59:14.866Z,17.20
2023-01-22T14:01:44.242Z,19.38
2023-01-22T14:04:34.397Z,18.17
2023-01-22T14:07:01.334Z,19.60
2023-01-22T14:09:32.255Z,17.63
2023-01-22T14:14:26.191Z,16.08
2023-01-22T14:16:52.843Z,15.88
2023-01-22T14:19:19.387Z,20.02
2023-01-22T14:21:45.844Z,15.75
2023-01-22T14:24:12.345Z,18.25
2023-01-22T14:26:38.982Z,17.33
2023-01-22T14:29:05.609Z,16.95
2023-01-22T14:31:32.219Z,19.30
2023-01-22T14:33:58.805Z,18.95
2023-01-22T14:36:25.509Z,19.00
2023-01-22T14:38:53.548Z,15.75
2023-01-22T14:41:20.569Z,15.82
2023-01-22T14:43:46.983Z,18.40
2023-01-22T14:46:13.560Z,19.00
2023-01-22T14:48:42.224Z,19.67
2023-01-22T14:51:12.803Z,17.42
2023-01-22T14:53:40.134Z,16.85
2023-01-22T14:56:07.147Z,17.88
2023-01-22T14:58:33.595Z,16.65
2023-01-22T15:01:00.286Z,17.08
2023-01-22T15:03:29.760Z,18.27
2023-01-22T15:05:56.521Z,15.73
2023-01-22T15:08:23.198Z,17.30
2023-01-22T15:10:49.732Z,19.00
2023-01-22T15:13:16.183Z,16.02
2023-01-22T15:15:42.646Z,17.65
2023-01-22T15:18:09.108Z,16.48
2023-01-22T15:20:35.609Z,18.10
2023-01-22T15:23:02.295Z,19.17
2023-01-22T15:25:28.760Z,19.10
2023-01-22T15:27:57.844Z,20.10
2023-01-22T15:30:24.744Z,19.73
2023-01-22T15:32:51.541Z,16.55
2023-01-22T15:35:18.003Z,18.17
2023-01-22T15:37:44.521Z,17.98
2023-01-22T15:40:11.892Z,20.48
2023-01-22T15:42:43.883Z,20.02
2023-01-22T15:45:11.278Z,19.70
2023-01-22T15:47:37.762Z,19.58
2023-01-22T15:50:04.787Z,18.55
2023-01-22T15:52:31.569Z,19.33
2023-01-22T15:54:58.109Z,18.58
2023-01-22T15:57:24.551Z,20.30
2023-01-22T15:59:53.849Z,19.58
2023-01-22T16:02:22.129Z,20.08
2023-01-22T16:04:48.649Z,19.10
2023-01-22T16:07:15.230Z,19.35
2023-01-22T16:09:41.705Z,20.17
2023-01-22T16:12:09.094Z,19.33
2023-01-22T16:14:35.792Z,17.58
2023-01-22T16:17:02.503Z,18.42
2023-01-22T16:19:29.052Z,21.65
2023-01-22T16:21:55.672Z,20.02
2023-01-22T16:24:22.271Z,19.33
2023-01-22T16:26:49.141Z,19.67
2023-01-22T16:29:15.633Z,23.25
2023-01-22T16:31:42.258Z,21.00
2023-01-22T16:34:11.395Z,22.70
2023-01-22T16:36:38.378Z,21.05
2023-01-22T16:39:05.489Z,22.30
2023-01-22T16:41:34.100Z,19.05
2023-01-22T16:44:12.311Z,22.33
2023-01-22T16:46:41.732Z,21.65
2023-01-22T16:49:14.698Z,20.13
2023-01-22T16:51:46.889Z,19.90
2023-01-22T16:54:31.910Z,17.70
2023-01-22T16:57:01.156Z,20.25
2023-01-22T16:59:27.722Z,20.98
2023-01-22T17:01:55.081Z,21.38
2023-01-22T17:04:21.550Z,22.02
2023-01-22T17:06:50.457Z,20.90
2023-01-22T17:09:19.544Z,21.42
2023-01-22T17:11:49.523Z,21.73
2023-01-22T17:14:18.908Z,20.60
2023-01-22T17:16:45.472Z,23.00
2023-01-22T17:19:13.399Z,21.15
2023-01-22T17:21:39.990Z,22.50
2023-01-22T17:24:11.426Z,20.25
2023-01-22T17:26:38.227Z,22.67
2023-01-22T17:29:06.866Z,31.67
2023-01-22T17:31:33.767Z,25.50
2023-01-22T17:34:00.393Z,21.80
2023-01-22T17:36:28.321Z,18.58
2023-01-22T17:38:56.551Z,19.88
2023-01-22T17:41:24.660Z,21.98
2023-01-22T17:43:52.408Z,20.38
2023-01-22T17:46:21.780Z,23.02
2023-01-22T17:48:49.822Z,30.08
2023-01-22T17:51:25.250Z,26.95
2023-01-22T17:53:51.995Z,20.02
2023-01-22T17:56:26.905Z,23.60
2023-01-22T17:58:55.740Z,19.80
2023-01-22T18:01:28.593Z,24.17
2023-01-22T18:04:00.349Z,22.48
2023-01-22T18:06:26.950Z,23.90
2023-01-22T18:08:53.913Z,20.77
2023-01-22T18:11:24.053Z,22.38
2023-01-22T18:13:50.640Z,20.90
2023-01-22T18:16:18.406Z,21.52
2023-01-22T18:18:45.216Z,21.83
2023-01-22T18:21:15.124Z,20.42
2023-01-22T18:23:42.225Z,24.02
2023-01-22T18:26:08.977Z,22.05
2023-01-22T18:28:35.980Z,31.60
2023-01-22T18:31:13.005Z,23.52
2023-01-22T18:33:40.586Z,22.40
2023-01-22T18:36:12.247Z,19.80
2023-01-22T18:38:41.955Z,21.20
2023-01-22T18:41:23.638Z,19.77
2023-01-22T18:43:56.168Z,22.35
2023-01-22T18:46:24.605Z,21.50
2023-01-22T18:49:00.008Z,22.98
2023-01-22T18:51:28.386Z,23.48
2023-01-22T18:53:56.702Z,19.35
2023-01-22T18:56:25.480Z,18.80
2023-01-22T18:58:56.171Z,21.63
2023-01-22T19:01:25.394Z,20.98
2023-01-22T19:03:54.299Z,27.33
2023-01-22T19:06:23.407Z,25.17
2023-01-22T19:09:06.284Z,23.50
2023-01-22T19:11:35.634Z,23.70
2023-01-22T19:14:03.397Z,20.90
2023-01-22T19:16:30.476Z,22.42
2023-01-22T19:19:03.839Z,22.77
2023-01-22T19:21:30.890Z,23.77
2023-01-22T19:23:59.418Z,20.80
2023-01-22T19:26:34.152Z,24.70
2023-01-22T19:29:05.849Z,21.27
2023-01-22T19:31:33.675Z,24.02
2023-01-22T19:34:01.322Z,25.15
2023-01-22T19:36:29.964Z,22.20
2023-01-22T19:38:57.807Z,33.15
2023-01-22T19:41:25.015Z,27.55
2023-01-22T19:43:55.748Z,21.10
2023-01-22T19:46:22.390Z,25.48
2023-01-22T19:48:49.084Z,23.60
2023-01-22T19:51:17.115Z,24.20
2023-01-22T19:53:43.759Z,21.15
2023-01-22T19:56:20.927Z,22.60
2023-01-22T19:58:48.740Z,25.00
2023-01-22T20:01:16.399Z,23.83
2023-01-22T20:03:43.241Z,24.90
2023-01-22T20:06:11.369Z,25.88
2023-01-22T20:08:38.948Z,24.23
2023-01-22T20:11:07.828Z,24.73
2023-01-22T20:13:36.574Z,26.75
2023-01-22T20:16:03.952Z,24.88
2023-01-22T20:18:30.847Z,25.70
2023-01-22T20:20:59.765Z,24.77
2023-01-22T20:23:27.877Z,28.45
2023-01-22T20:25:54.998Z,26.17
2023-01-22T20:28:21.836Z,28.52
2023-01-22T20:30:59.710Z,26.40
2023-01-22T20:33:27.099Z,25.23
2023-01-22T20:35:58.303Z,27.35
2023-01-22T20:38:25.244Z,28.30
2023-01-22T20:40:52.124Z,23.73
2023-01-22T20:43:19.833Z,25.67
2023-01-22T20:45:57.673Z,25.48
2023-01-22T20:48:24.183Z,26.88
2023-01-22T20:50:50.695Z,24.95
2023-01-22T20:53:19.212Z,28.30
2023-01-22T20:55:46.060Z,27.60
2023-01-22T20:58:12.543Z,27.85
2023-01-22T21:00:39.917Z,25.65
2023-01-22T21:03:06.431Z,22.35
2023-01-22T21:05:32.972Z,27.25
2023-01-22T21:08:01.711Z,26.55
2023-01-22T21:10:28.158Z,27.17
2023-01-22T21:12:54.610Z,25.85
2023-01-22T21:15:21.061Z,26.42
2023-01-22T21:17:47.530Z,23.83
2023-01-22T21:20:14.022Z,28.13
2023-01-22T21:22:42.361Z,26.08
2023-01-22T21:25:09.122Z,24.02
2023-01-22T21:27:37.817Z,28.02
2023-01-22T21:30:07.576Z,28.05
2023-01-22T21:32:34.067Z,28.20
2023-01-22T21:35:01.710Z,27.02
2023-01-22T21:37:28.223Z,26.30
2023-01-22T21:39:54.631Z,26.45
2023-01-22T21:42:39.603Z,25.35
2023-01-22T21:45:25.311Z,26.55
2023-01-22T21:47:51.795Z,22.80
2023-01-22T21:50:18.382Z,26.33
2023-01-22T21:52:46.394Z,25.88
2023-01-22T21:55:14.899Z,28.20
2023-01-22T21:57:41.705Z,26.20
2023-01-22T22:00:08.997Z,26.10
2023-01-22T22:02:35.572Z,24.42
2023-01-22T22:05:02.124Z,27.00
2023-01-22T22:07:28.572Z,25.23
2023-01-22T22:09:54.987Z,24.92
2023-01-22T22:12:21.522Z,25.35
2023-01-22T22:14:48.016Z,24.98
2023-01-22T22:17:14.421Z,23.88
2023-01-22T22:19:40.982Z,24.63
2023-01-22T22:22:07.543Z,25.17
2023-01-22T22:24:36.283Z,25.85
2023-01-22T22:27:02.737Z,25.60
2023-01-22T22:29:29.177Z,25.13
2023-01-22T22:31:55.779Z,24.80
2023-01-22T22:34:22.217Z,24.98
2023-01-22T22:36:48.662Z,25.92
2023-01-22T22:39:15.142Z,24.98
2023-01-22T22:41:41.656Z,22.90
2023-01-22T22:44:08.678Z,25.02
2023-01-22T22:46:36.997Z,24.67
2023-01-22T22:49:04.522Z,24.17
2023-01-22T22:51:36.611Z,24.55
2023-01-22T22:54:06.124Z,23.95
2023-01-22T22:56:32.649Z,22.77
2023-01-22T22:59:00.799Z,24.90
2023-01-22T23:01:28.233Z,22.88
2023-01-22T23:03:55.017Z,24.08
2023-01-22T23:06:32.499Z,23.10
2023-01-22T23:08:59.869Z,23.30
2023-01-22T23:11:32.166Z,23.10
2023-01-22T23:14:01.382Z,23.02
2023-01-22T23:16:33.278Z,23.90
2023-01-22T23:19:01.726Z,21.70
2023-01-22T23:21:28.801Z,23.00
2023-01-22T23:23:56.064Z,20.77
2023-01-22T23:26:28.132Z,21.33
2023-01-22T23:28:57.818Z,19.58
2023-01-22T23:31:25.173Z,20.55
2023-01-22T23:33:51.918Z,20.63
2023-01-22T23:36:18.354Z,18.67
2023-01-22T23:38:45.271Z,17.83
2023-01-22T23:41:14.471Z,20.20
2023-01-22T23:43:42.048Z,18.23
2023-01-22T23:46:11.234Z,18.45
2023-01-22T23:48:37.933Z,18.10
2023-01-22T23:51:04.602Z,17.98
2023-01-22T23:53:31.020Z,20.20
2023-01-22T23:56:01.302Z,19.20
2023-01-22T23:58:28.606Z,18.65
